Time;durP1;ratioP1;P1;durP2;ratioP2;P2;SDS_P1;SDS_P2;PMS_P1;PMS_P2;Temp;Humidity;BMP_temperature;BMP_pressure;BME280_temperature;BME280_humidity;BME280_pressure;Samples;Min_cycle;Max_cycle;Signal;HPM_P1;HPM_P2
2022/11/08 04:09:12;;;;;;;6.95;2.28;;;21.00;68.40;;;;;;5068573;28;20488;-72
2022/11/08 04:21:17;;;;;;;8.93;5.75;;;21.00;67.90;;;;;;5021903;28;20115;-68
2022/11/08 04:22:59;;;;;;;8.25;3.33;;;21.00;67.50;;;;;;5057585;28;20043;-68
2022/11/08 04:25:26;;;;;;;7.25;2.50;;;21.00;67.50;;;;;;5067612;28;20028;-68
2022/11/08 04:27:52;;;;;;;8.68;6.00;;;21.10;67.60;;;;;;5063065;28;20107;-68
2022/11/08 04:30:19;;;;;;;13.77;9.35;;;21.10;67.60;;;;;;5064300;28;20025;-68
2022/11/08 04:32:45;;;;;;;15.73;6.88;;;21.10;67.70;;;;;;5103587;27;20548;-69
2022/11/08 04:35:12;;;;;;;9.27;5.80;;;21.10;67.70;;;;;;5071549;28;20567;-68
2022/11/08 04:37:38;;;;;;;6.70;3.22;;;21.10;67.70;;;;;;5068890;28;20035;-68
2022/11/08 04:40:05;;;;;;;8.45;3.40;;;21.10;67.70;;;;;;5074846;28;20021;-67
2022/11/08 04:42:32;;;;;;;6.85;2.65;;;21.10;67.70;;;;;;5070421;28;20070;-68
2022/11/08 04:44:58;;;;;;;6.82;2.25;;;21.10;67.60;;;;;;5072976;28;20036;-68
2022/11/08 04:47:26;;;;;;;10.77;2.60;;;21.10;67.60;;;;;;5071369;28;20776;-68
2022/11/08 04:49:53;;;;;;;4.30;1.90;;;21.10;67.60;;;;;;5069718;28;20506;-68
2022/11/08 04:52:20;;;;;;;5.63;2.53;;;21.10;67.60;;;;;;5072942;28;20107;-68
2022/11/08 04:54:49;;;;;;;11.23;3.70;;;21.10;67.60;;;;;;5073894;28;20039;-68
2022/11/08 04:57:16;;;;;;;7.43;2.95;;;21.20;67.70;;;;;;5075425;28;20028;-68
2022/11/08 04:59:42;;;;;;;6.30;2.70;;;21.20;68.00;;;;;;5068461;28;20540;-69
2022/11/08 05:02:09;;;;;;;12.63;4.32;;;21.20;68.10;;;;;;5071268;28;20020;-67
2022/11/08 05:04:35;;;;;;;8.70;2.30;;;21.20;68.00;;;;;;5070068;28;20040;-68
2022/11/08 05:07:02;;;;;;;11.20;3.03;;;21.20;68.10;;;;;;5068406;28;20017;-68
2022/11/08 05:09:28;;;;;;;7.80;2.92;;;21.20;68.00;;;;;;5071421;28;20020;-68
2022/11/08 05:11:55;;;;;;;6.40;3.42;;;21.20;68.10;;;;;;5070294;28;20016;-70
2022/11/08 05:14:21;;;;;;;7.70;3.95;;;21.20;68.10;;;;;;5069031;28;20567;-69
2022/11/08 05:16:48;;;;;;;11.30;6.50;;;21.20;68.10;;;;;;5068137;28;20616;-68
2022/11/08 05:23:22;;;;;;;16.13;11.00;;;21.30;68.30;;;;;;5070952;28;20028;-67
2022/11/08 05:24:45;;;;;;;7.50;4.97;;;21.30;68.20;;;;;;5068599;28;20120;-69
2022/11/08 05:27:12;;;;;;;14.93;4.90;;;21.40;68.20;;;;;;5070844;28;20021;-69
2022/11/08 05:29:38;;;;;;;8.65;4.45;;;21.40;68.00;;;;;;5071107;28;20030;-68
2022/11/08 05:32:05;;;;;;;13.85;3.25;;;21.40;67.90;;;;;;5071132;28;20391;-70
2022/11/08 05:34:31;;;;;;;10.27;3.40;;;21.40;67.70;;;;;;5069483;28;20027;-68
2022/11/08 05:36:58;;;;;;;47.78;28.90;;;21.50;67.70;;;;;;5070584;28;20032;-68
2022/11/08 05:39:24;;;;;;;26.67;16.88;;;21.50;68.60;;;;;;5071341;28;20031;-68
2022/11/08 05:41:51;;;;;;;21.58;14.77;;;21.60;69.60;;;;;;5070385;28;20111;-68
2022/11/08 05:44:17;;;;;;;13.85;8.38;;;21.60;69.50;;;;;;5066591;28;20422;-68
2022/11/08 05:46:44;;;;;;;12.60;6.85;;;21.60;69.30;;;;;;5066210;28;20028;-68
2022/11/08 05:49:10;;;;;;;11.48;4.93;;;21.60;68.80;;;;;;5068877;28;20475;-68
2022/11/08 05:51:37;;;;;;;9.60;4.63;;;21.70;68.50;;;;;;5068412;28;20134;-71
2022/11/08 05:54:04;;;;;;;7.22;3.35;;;21.70;68.10;;;;;;5069943;28;20529;-69
2022/11/08 05:56:30;;;;;;;8.65;3.55;;;21.70;67.90;;;;;;5071043;28;20435;-68
2022/11/08 05:58:57;;;;;;;7.28;2.67;;;21.70;67.60;;;;;;5070683;28;20157;-68
2022/11/08 06:01:24;;;;;;;9.80;3.83;;;21.70;67.50;;;;;;5071988;28;20031;-72
2022/11/08 06:03:50;;;;;;;29.23;10.25;;;21.70;67.40;;;;;;5070375;28;20062;-68
2022/11/08 06:06:19;;;;;;;13.40;6.55;;;21.80;68.40;;;;;;5069211;28;20025;-69
2022/11/08 06:08:46;;;;;;;17.58;7.40;;;21.80;68.60;;;;;;5065776;28;20048;-69
2022/11/08 06:11:15;;;;;;;12.48;6.10;;;21.80;68.40;;;;;;5070360;28;20081;-68
2022/11/08 06:13:42;;;;;;;17.17;4.60;;;21.80;68.10;;;;;;5069412;28;20431;-69
2022/11/08 06:16:11;;;;;;;9.40;4.03;;;21.80;67.90;;;;;;5065548;28;20112;-69
2022/11/08 06:18:39;;;;;;;10.82;3.90;;;21.90;67.70;;;;;;5065725;28;20534;-68
2022/11/08 06:21:08;;;;;;;7.05;4.90;;;21.90;67.60;;;;;;5068657;28;20375;-68
2022/11/08 06:23:34;;;;;;;9.80;3.25;;;22.00;67.50;;;;;;5067961;28;20039;-69
2022/11/08 06:26:01;;;;;;;8.30;3.22;;;22.00;67.40;;;;;;5069842;28;20590;-70
2022/11/08 06:28:28;;;;;;;13.13;4.82;;;22.00;67.20;;;;;;5068543;28;20036;-68
2022/11/08 06:30:57;;;;;;;6.95;3.40;;;22.10;67.20;;;;;;5072132;28;20096;-68
2022/11/08 06:33:24;;;;;;;6.50;3.28;;;22.10;67.10;;;;;;5069735;28;20027;-68
2022/11/08 06:35:51;;;;;;;6.40;2.60;;;22.10;67.00;;;;;;5069016;28;20071;-68
2022/11/08 06:38:17;;;;;;;6.13;2.70;;;22.20;67.00;;;;;;5069882;28;20480;-69
2022/11/08 06:40:44;;;;;;;8.23;3.70;;;22.20;66.80;;;;;;5069557;28;20025;-69
2022/11/08 06:43:14;;;;;;;14.48;3.58;;;22.20;66.70;;;;;;5066355;28;20130;-68
2022/11/08 06:45:41;;;;;;;13.18;3.17;;;22.30;66.80;;;;;;5065980;28;20534;-68
2022/11/08 06:48:09;;;;;;;7.97;3.25;;;22.30;66.70;;;;;;5070607;28;20374;-68
2022/11/08 06:50:36;;;;;;;12.32;4.10;;;22.30;66.70;;;;;;5068790;28;20494;-68
2022/11/08 06:53:05;;;;;;;5.38;2.17;;;22.30;66.70;;;;;;5066638;28;20063;-68
2022/11/08 06:55:33;;;;;;;8.70;3.10;;;22.40;66.50;;;;;;5068922;28;20024;-67
2022/11/08 06:58:00;;;;;;;10.88;2.17;;;22.40;66.20;;;;;;5070529;28;20498;-68
2022/11/08 07:00:27;;;;;;;8.10;2.05;;;22.40;66.00;;;;;;5070524;28;20521;-68
2022/11/08 08:34:33;;;;;;;5.97;1.50;;;22.80;70.60;;;;;;6158258;23;20021;-68
2022/11/08 08:36:59;;;;;;;7.22;3.15;;;22.90;70.40;;;;;;6159757;23;20329;-69
2022/11/08 08:39:27;;;;;;;3.25;2.38;;;23.00;70.00;;;;;;6158717;23;20431;-70
2022/11/08 08:41:53;;;;;;;7.38;1.83;;;23.00;69.70;;;;;;6159878;23;20005;-70
2022/11/08 08:44:20;;;;;;;5.90;2.00;;;23.10;69.80;;;;;;6159101;23;20048;-69
2022/11/08 08:46:46;;;;;;;3.65;2.83;;;23.20;69.70;;;;;;6157914;23;20005;-69
2022/11/08 08:49:13;;;;;;;8.20;2.10;;;23.20;69.30;;;;;;6156685;23;20397;-69
2022/11/08 08:51:39;;;;;;;6.80;1.80;;;23.30;69.30;;;;;;6159825;23;20337;-69
2022/11/08 08:54:06;;;;;;;7.30;2.13;;;23.30;69.30;;;;;;6159615;23;20070;-69
2022/11/08 08:56:32;;;;;;;5.70;1.70;;;23.40;69.40;;;;;;6158992;23;19998;-69
2022/11/08 08:58:59;;;;;;;4.32;1.52;;;23.40;69.20;;;;;;6159690;23;20070;-69
2022/11/08 09:01:25;;;;;;;20.92;2.72;;;23.50;68.60;;;;;;6158532;23;20017;-69
2022/11/08 09:03:52;;;;;;;12.73;1.63;;;23.50;68.20;;;;;;6159208;23;19997;-70
2022/11/08 09:06:19;;;;;;;5.00;1.73;;;23.50;68.00;;;;;;6158256;23;20429;-71
2022/11/08 09:08:45;;;;;;;4.80;1.40;;;23.60;68.10;;;;;;6159578;23;20503;-70
2022/11/08 09:11:12;;;;;;;18.70;3.13;;;23.70;68.20;;;;;;6158875;23;20503;-71
2022/11/08 09:13:38;;;;;;;7.45;2.05;;;23.70;68.10;;;;;;6158917;23;20034;-70
2022/11/08 09:16:06;;;;;;;2.33;1.05;;;23.70;67.50;;;;;;6159035;23;20043;-71
2022/11/08 09:18:33;;;;;;;2.70;1.27;;;23.80;67.10;;;;;;6158614;23;20009;-70
2022/11/08 09:21:03;;;;;;;3.80;1.02;;;23.80;65.70;;;;;;6159319;23;20083;-70
2022/11/08 09:23:29;;;;;;;2.75;0.65;;;23.80;65.00;;;;;;6158497;23;20036;-71
2022/11/08 09:25:57;;;;;;;4.20;2.50;;;23.80;64.50;;;;;;6156552;23;20061;-71
2022/11/08 09:28:24;;;;;;;5.90;2.50;;;23.90;64.30;;;;;;6151565;23;20016;-71
2022/11/08 09:31:30;;;;;;;7.90;2.15;;;23.90;64.40;;;;;;6151796;23;20006;-70
2022/11/08 09:34:16;;;;;;;;;;;24.00;63.80;;;;;;6147749;23;20345;-70
2022/11/08 09:37:22;;;;;;;8.27;1.58;;;24.00;63.40;;;;;;6145154;23;20325;-70
2022/11/08 09:40:08;;;;;;;;;;;24.10;63.10;;;;;;6146370;23;20753;-70
2022/11/08 09:43:14;;;;;;;3.90;1.05;;;24.20;63.30;;;;;;6145808;23;19904;-70
2022/11/08 09:45:59;;;;;;;;;;;24.20;62.80;;;;;;6144210;23;20527;-70
2022/11/08 09:49:06;;;;;;;4.13;1.35;;;24.30;61.20;;;;;;6145388;23;20400;-71
2022/11/08 09:51:51;;;;;;;;;;;24.20;60.80;;;;;;6146351;23;20001;-71
2022/11/08 09:55:00;;;;;;;6.07;2.03;;;24.20;61.20;;;;;;6144290;23;19913;-70
2022/11/08 09:57:46;;;;;;;5.93;1.33;;;24.20;61.70;;;;;;6145694;23;20009;-70
2022/11/08 10:00:53;;;;;;;4.60;1.00;;;24.20;62.20;;;;;;6145685;23;20044;-70
2022/11/08 10:03:39;;;;;;;;;;;24.20;62.80;;;;;;6145666;23;20032;-71
2022/11/08 10:06:43;;;;;;;8.85;1.02;;;24.20;62.80;;;;;;6144348;23;19979;-72
2022/11/08 10:09:25;;;;;;;4.03;0.93;;;24.20;62.10;;;;;;6146433;23;20071;-72
2022/11/08 10:12:04;;;;;;;4.28;1.23;;;24.10;61.40;;;;;;6144297;23;20010;-72
2022/11/08 10:14:59;;;;;;;5.90;0.90;;;24.10;61.20;;;;;;6145344;23;20017;-71
2022/11/08 10:18:10;;;;;;;3.85;0.98;;;24.10;60.80;;;;;;6145491;23;20028;-71
2022/11/08 10:20:45;;;;;;;5.00;2.22;;;24.20;61.60;;;;;;6145577;23;20009;-71
2022/11/08 10:23:44;;;;;;;6.88;2.13;;;24.20;61.00;;;;;;6146351;23;20012;-69
2022/11/08 10:26:19;;;;;;;3.40;1.08;;;24.30;61.40;;;;;;6146189;23;20001;-71
2022/11/08 10:28:53;;;;;;;17.13;2.15;;;24.30;61.30;;;;;;6144301;23;20009;-71
2022/11/08 10:31:20;;;;;;;4.03;1.13;;;24.30;61.20;;;;;;6146136;23;20479;-72
2022/11/08 10:33:49;;;;;;;6.70;1.88;;;24.30;61.20;;;;;;6144871;23;20096;-70
2022/11/08 10:36:40;;;;;;;2.95;1.17;;;24.40;61.70;;;;;;6145193;23;20013;-69
2022/11/08 10:39:27;;;;;;;2.30;1.00;;;24.40;61.60;;;;;;6148089;23;20005;-71
2022/11/08 10:42:38;;;;;;;3.35;1.00;;;24.40;61.40;;;;;;6146586;23;20005;-71
2022/11/08 10:45:04;;;;;;;7.70;1.52;;;24.30;61.80;;;;;;6056946;23;20015;-69
2022/11/08 10:47:33;;;;;;;3.50;0.80;;;24.30;62.00;;;;;;6136067;23;20036;-70
2022/11/08 10:49:59;;;;;;;7.40;1.45;;;24.20;62.00;;;;;;6146902;23;20033;-71
2022/11/08 10:52:41;;;;;;;3.10;1.10;;;24.20;62.00;;;;;;6148218;23;20025;-69
2022/11/08 10:55:21;;;;;;;4.47;1.60;;;24.10;62.10;;;;;;6147419;23;20590;-69
2022/11/08 10:57:48;;;;;;;4.10;1.05;;;24.10;62.20;;;;;;6147439;23;20005;-69
2022/11/08 11:00:29;;;;;;;14.23;3.03;;;24.10;62.30;;;;;;6148296;23;20314;-70
2022/11/08 11:03:05;;;;;;;4.82;1.92;;;24.10;62.40;;;;;;6146501;23;20033;-70
2022/11/08 11:05:40;;;;;;;3.08;1.08;;;24.00;62.40;;;;;;6148317;23;20015;-71
2022/11/08 11:08:10;;;;;;;3.17;1.23;;;24.00;62.50;;;;;;6147286;23;20501;-70
2022/11/08 11:10:38;;;;;;;2.63;1.05;;;23.90;62.40;;;;;;6147502;23;20001;-69
2022/11/08 11:13:22;;;;;;;1.45;0.90;;;23.90;62.20;;;;;;6147721;23;20081;-70
2022/11/08 11:15:56;;;;;;;4.28;0.90;;;23.80;62.20;;;;;;6146248;23;20013;-70
2022/11/08 11:18:30;;;;;;;3.40;0.68;;;23.80;62.30;;;;;;6148865;23;20029;-72
2022/11/08 11:21:15;;;;;;;7.30;1.30;;;23.70;62.40;;;;;;6146971;23;20002;-70
2022/11/08 11:24:11;;;;;;;4.20;0.82;;;23.70;62.40;;;;;;6147200;23;19997;-71
2022/11/08 11:26:45;;;;;;;5.60;1.33;;;23.70;62.50;;;;;;6148105;23;20467;-71
2022/11/08 11:29:16;;;;;;;3.83;1.05;;;23.70;62.50;;;;;;6146574;23;20005;-69
2022/11/08 11:31:48;;;;;;;6.88;1.40;;;23.70;62.50;;;;;;6144697;23;20433;-70
2022/11/08 11:34:18;;;;;;;22.33;3.47;;;23.70;62.50;;;;;;6143161;23;20049;-71
2022/11/08 11:36:53;;;;;;;4.43;1.33;;;23.80;63.00;;;;;;6144296;23;20005;-71
2022/11/08 11:39:28;;;;;;;4.97;2.30;;;23.80;62.70;;;;;;6145407;23;20020;-69
2022/11/08 11:42:08;;;;;;;5.07;1.40;;;23.90;62.50;;;;;;6143440;23;20750;-70
2022/11/08 11:44:56;;;;;;;5.22;1.50;;;24.00;62.50;;;;;;6144605;23;20084;-70
2022/11/08 11:47:40;;;;;;;8.52;1.38;;;24.10;62.20;;;;;;6143376;23;20010;-71
2022/11/08 11:50:34;;;;;;;8.32;1.50;;;24.30;61.60;;;;;;6143182;23;20002;-71
2022/11/08 11:53:16;;;;;;;4.03;1.08;;;24.30;61.30;;;;;;6143727;23;20009;-69
2022/11/08 11:56:20;;;;;;;3.05;0.77;;;24.40;61.20;;;;;;6146551;23;20010;-71
2022/11/08 11:58:59;;;;;;;2.03;0.88;;;24.50;60.70;;;;;;6146283;23;20344;-71
2022/11/08 12:01:28;;;;;;;5.38;0.82;;;24.60;60.70;;;;;;6149308;23;20454;-70
2022/11/08 12:04:07;;;;;;;3.90;0.82;;;24.70;60.70;;;;;;6150213;23;20002;-69
2022/11/08 12:06:49;;;;;;;2.80;1.10;;;24.70;60.30;;;;;;6151362;23;20010;-70
2022/11/08 12:09:53;;;;;;;3.47;1.08;;;24.70;59.90;;;;;;6151270;23;20005;-70
2022/11/08 12:12:43;;;;;;;3.83;1.25;;;24.70;59.50;;;;;;6149834;23;20432;-69
2022/11/08 12:15:28;;;;;;;8.23;1.33;;;24.70;59.30;;;;;;6151213;23;20020;-69
2022/11/08 12:18:30;;;;;;;6.25;1.38;;;24.70;58.60;;;;;;6150993;23;20016;-70
2022/11/08 12:21:26;;;;;;;7.30;1.63;;;24.70;58.40;;;;;;6149274;23;20001;-69
2022/11/08 12:23:55;;;;;;;4.88;1.55;;;24.70;58.10;;;;;;6150549;23;20089;-72
2022/11/08 12:27:10;;;;;;;6.80;1.80;;;24.60;58.90;;;;;;6150125;23;20037;-70
2022/11/08 12:30:29;;;;;;;3.50;1.30;;;24.70;59.20;;;;;;6149360;23;20659;-71
2022/11/08 12:33:20;;;;;;;4.28;1.35;;;24.70;58.90;;;;;;6144384;23;20088;-70
2022/11/08 12:36:15;;;;;;;8.40;1.58;;;24.80;58.60;;;;;;6150810;23;20021;-71
2022/11/08 12:38:50;;;;;;;8.50;1.42;;;24.80;58.20;;;;;;6148974;23;20071;-71
2022/11/08 12:41:59;;;;;;;11.30;3.33;;;24.80;58.20;;;;;;6150604;23;20005;-70
2022/11/08 12:44:47;;;;;;;5.47;1.48;;;24.80;57.60;;;;;;6147318;23;20497;-71
2022/11/08 12:47:40;;;;;;;2.72;1.00;;;24.80;57.40;;;;;;6149728;23;20005;-70
2022/11/08 12:50:25;;;;;;;3.78;1.23;;;24.80;56.70;;;;;;6151141;23;20076;-70
2022/11/08 12:52:54;;;;;;;5.22;1.90;;;24.80;55.90;;;;;;6148743;23;20377;-70
2022/11/08 12:55:28;;;;;;;5.47;1.17;;;24.70;55.50;;;;;;6149665;23;20014;-70
2022/11/08 12:57:59;;;;;;;9.27;1.73;;;24.70;55.00;;;;;;6151853;23;20442;-71
2022/11/08 13:00:28;;;;;;;1.73;1.25;;;24.80;55.20;;;;;;6149975;23;20012;-70
2022/11/08 13:03:07;;;;;;;3.58;1.38;;;24.80;55.60;;;;;;6152337;23;20028;-71
2022/11/08 13:06:17;;;;;;;6.10;1.45;;;24.80;55.40;;;;;;6150719;23;20009;-71
2022/11/08 13:09:04;;;;;;;4.25;1.73;;;24.90;55.20;;;;;;6151064;23;20001;-71
2022/11/08 13:12:19;;;;;;;5.13;3.17;;;24.90;54.00;;;;;;6153088;23;20002;-72
2022/11/08 13:14:46;;;;;;;3.35;1.10;;;25.00;53.50;;;;;;6062562;23;20015;-71
2022/11/08 13:17:21;;;;;;;8.63;1.90;;;25.00;53.80;;;;;;6060678;23;20011;-70
2022/11/08 13:19:51;;;;;;;4.63;0.80;;;25.10;54.30;;;;;;6110697;23;20778;-72
2022/11/08 13:22:30;;;;;;;8.27;1.88;;;25.10;54.20;;;;;;6151823;23;19997;-72
2022/11/08 13:25:20;;;;;;;2.63;0.93;;;25.10;53.80;;;;;;6152090;23;20006;-71
2022/11/08 13:27:48;;;;;;;5.97;1.55;;;25.20;53.40;;;;;;6140885;23;20013;-73
2022/11/08 13:30:14;;;;;;;2.75;1.25;;;25.20;53.00;;;;;;6150547;23;20361;-73
2022/11/08 13:32:53;;;;;;;3.03;1.17;;;25.20;52.40;;;;;;6152283;23;20025;-73
2022/11/08 13:35:27;;;;;;;4.32;1.45;;;25.20;52.40;;;;;;6151388;23;20425;-71
2022/11/08 13:38:06;;;;;;;3.22;1.15;;;25.20;52.30;;;;;;6152323;23;20001;-71
2022/11/08 13:40:59;;;;;;;3.20;1.23;;;25.20;52.20;;;;;;6152962;23;20326;-72
2022/11/08 13:43:31;;;;;;;8.10;1.17;;;25.20;51.90;;;;;;6151648;23;20321;-72
2022/11/08 13:46:21;;;;;;;3.40;1.65;;;25.20;52.30;;;;;;6151886;23;20009;-71
2022/11/08 13:49:12;;;;;;;4.40;1.67;;;25.20;52.70;;;;;;6151815;23;20005;-71
2022/11/08 13:51:40;;;;;;;3.63;1.52;;;25.20;53.00;;;;;;6151129;23;19998;-71
2022/11/08 13:54:21;;;;;;;3.40;0.70;;;25.20;53.60;;;;;;6152416;23;20010;-72
2022/11/08 13:56:49;;;;;;;2.88;1.10;;;25.20;53.90;;;;;;6151020;23;20441;-73
2022/11/08 13:59:31;;;;;;;4.70;1.52;;;25.20;53.70;;;;;;6152181;23;20001;-71
2022/11/08 14:02:02;;;;;;;3.47;1.00;;;25.10;53.70;;;;;;6151891;23;20008;-74
2022/11/08 16:16:16;;;;;;;6.15;1.88;;;24.10;53.50;;;;;;5064113;27;20971;-75
2022/11/08 16:18:44;;;;;;;4.35;1.50;;;24.10;54.60;;;;;;5062032;28;20034;-77
2022/11/08 16:21:12;;;;;;;10.88;2.40;;;24.20;54.10;;;;;;5059965;28;20393;-76
2022/11/08 16:23:39;;;;;;;6.20;2.72;;;24.10;53.80;;;;;;5063335;28;20029;-74
2022/11/08 16:26:24;;;;;;;7.47;2.72;;;24.10;54.20;;;;;;5063808;28;20013;-75
2022/11/08 16:28:51;;;;;;;;;;;24.20;54.20;;;;;;5063232;28;20021;-78
2022/11/08 16:31:17;;;;;;;7.65;1.67;;;24.10;54.20;;;;;;5061803;28;19909;-80
2022/11/08 16:33:45;;;;;;;2.88;0.98;;;24.10;53.90;;;;;;5060818;28;20040;-79
2022/11/08 16:36:26;;;;;;;5.45;1.50;;;24.10;53.20;;;;;;5064109;28;20029;-75
2022/11/08 16:38:55;;;;;;;3.92;1.33;;;24.10;52.70;;;;;;5062087;28;20078;-76
2022/11/08 16:41:24;;;;;;;3.90;0.90;;;24.00;53.60;;;;;;5059757;28;20036;-78
2022/11/08 16:43:55;;;;;;;5.80;1.35;;;24.00;53.40;;;;;;5060772;28;20040;-75
2022/11/08 16:46:31;;;;;;;2.25;1.20;;;24.00;53.80;;;;;;5066255;28;20025;-76
2022/11/08 16:48:59;;;;;;;4.80;1.60;;;24.00;54.00;;;;;;5061819;28;20028;-79
2022/11/08 16:51:31;;;;;;;7.53;1.55;;;23.90;54.20;;;;;;5060032;28;20082;-80
2022/11/08 16:54:19;;;;;;;7.45;1.73;;;23.90;54.70;;;;;;5060347;28;20021;-75
2022/11/08 16:56:52;;;;;;;3.75;1.25;;;23.90;54.80;;;;;;5060349;28;20028;-75
2022/11/08 16:59:19;;;;;;;4.40;1.27;;;23.80;55.20;;;;;;5056914;28;20044;-76
2022/11/08 17:02:15;;;;;;;5.50;1.27;;;23.80;55.50;;;;;;5062616;28;20387;-73
2022/11/08 17:04:46;;;;;;;6.75;1.17;;;23.80;55.60;;;;;;5062329;28;20121;-73
2022/11/08 17:07:13;;;;;;;5.68;1.70;;;23.80;55.60;;;;;;5059620;28;20021;-75
2022/11/08 17:09:46;;;;;;;5.88;1.05;;;23.80;55.40;;;;;;5059755;28;20502;-78
2022/11/08 17:12:43;;;;;;;2.45;1.17;;;23.80;54.70;;;;;;5059543;28;20044;-75
2022/11/08 17:15:22;;;;;;;3.55;1.08;;;23.70;54.20;;;;;;5062101;28;20047;-72
2022/11/08 17:17:50;;;;;;;7.95;1.90;;;23.70;53.80;;;;;;5067828;28;20042;-75
2022/11/08 17:20:19;;;;;;;36.25;5.35;;;23.70;53.50;;;;;;5066638;28;20021;-77
2022/11/08 17:22:49;;;;;;;15.00;2.42;;;23.60;53.80;;;;;;5064846;28;20028;-74
2022/11/08 17:25:29;;;;;;;;;;;;;;;;;;;;;
2022/11/08 17:27:57;;;;;;;6.03;1.35;;;23.60;54.50;;;;;;5067172;28;20031;-75
2022/11/08 17:30:23;;;;;;;1.20;0.70;;;23.60;54.10;;;;;;5072204;28;20043;-72
2022/11/08 17:32:50;;;;;;;5.80;1.55;;;23.60;54.50;;;;;;5065942;28;20021;-75
2022/11/08 17:35:17;;;;;;;8.15;1.63;;;23.60;55.00;;;;;;5067689;28;20383;-75
2022/11/08 17:37:43;;;;;;;5.43;2.38;;;23.50;55.40;;;;;;5065875;28;20039;-77
2022/11/08 17:40:10;;;;;;;3.50;2.50;;;23.50;55.50;;;;;;5065041;28;20032;-76
2022/11/08 17:42:40;;;;;;;3.05;1.90;;;23.50;55.80;;;;;;5067580;28;20020;-75
2022/11/08 17:45:10;;;;;;;5.95;1.75;;;23.50;55.70;;;;;;5068282;28;20036;-76
2022/11/08 17:47:37;;;;;;;5.68;2.00;;;23.50;56.20;;;;;;5066506;28;20036;-76
2022/11/08 17:50:05;;;;;;;3.80;1.20;;;23.50;55.50;;;;;;5067221;28;20036;-76
2022/11/08 17:52:32;;;;;;;11.27;2.53;;;23.50;55.40;;;;;;5062949;28;20434;-76
2022/11/08 17:54:58;;;;;;;6.15;1.30;;;23.50;55.30;;;;;;5066607;28;20020;-77
2022/11/08 17:57:25;;;;;;;4.65;1.20;;;23.50;55.40;;;;;;5066997;28;20015;-74
2022/11/08 17:59:51;;;;;;;4.35;1.30;;;23.50;55.40;;;;;;5064405;28;20025;-76
2022/11/08 18:02:18;;;;;;;9.55;1.75;;;23.50;55.50;;;;;;5064286;28;20493;-76
2022/11/08 18:04:45;;;;;;;6.47;2.17;;;23.40;55.50;;;;;;5067642;28;21373;-79
2022/11/08 18:07:11;;;;;;;3.85;1.05;;;23.40;55.30;;;;;;5064211;28;20115;-74
2022/11/08 18:09:38;;;;;;;6.35;1.45;;;23.40;55.20;;;;;;5062548;28;20025;-76
2022/11/08 18:12:04;;;;;;;4.25;1.45;;;23.30;55.00;;;;;;5063890;28;20016;-76
2022/11/08 18:14:31;;;;;;;5.53;2.25;;;23.30;54.90;;;;;;5066135;28;20048;-75
2022/11/08 18:16:58;;;;;;;6.70;0.90;;;23.20;54.60;;;;;;5067291;28;20146;-74
2022/11/08 18:19:25;;;;;;;3.45;0.95;;;23.20;54.40;;;;;;5067387;28;20082;-73
2022/11/08 18:21:51;;;;;;;1.73;0.60;;;23.20;54.30;;;;;;5066271;28;20017;-71
2022/11/08 18:24:18;;;;;;;7.18;1.88;;;23.20;54.20;;;;;;5066429;28;20029;-74
2022/11/08 18:26:44;;;;;;;1.75;0.82;;;23.20;54.10;;;;;;5064934;28;20021;-73
2022/11/08 18:29:11;;;;;;;4.95;1.80;;;23.10;54.10;;;;;;5063978;28;20029;-76
2022/11/08 18:31:37;;;;;;;7.45;4.40;;;23.10;54.10;;;;;;5068402;28;20043;-75
2022/11/08 18:34:04;;;;;;;3.33;1.77;;;23.10;54.10;;;;;;5066291;28;20420;-79
2022/11/08 18:36:31;;;;;;;4.38;1.58;;;23.00;54.20;;;;;;5065214;28;20017;-75
2022/11/08 18:39:01;;;;;;;3.88;0.93;;;23.00;54.30;;;;;;5067253;28;20531;-75
2022/11/08 18:41:30;;;;;;;3.95;1.15;;;23.00;54.40;;;;;;5065156;28;20269;-73
2022/11/08 18:44:01;;;;;;;5.85;2.65;;;23.00;54.50;;;;;;5066708;28;20032;-76
2022/11/08 18:46:35;;;;;;;2.90;0.95;;;23.00;54.60;;;;;;5061654;28;20040;-74
2022/11/08 18:49:04;;;;;;;7.50;1.38;;;22.90;54.70;;;;;;5065540;28;20111;-76
2022/11/08 18:51:31;;;;;;;10.30;2.55;;;22.90;54.90;;;;;;5060033;28;20028;-74
2022/11/08 18:54:05;;;;;;;9.45;1.73;;;22.90;55.10;;;;;;5064588;28;20589;-74
2022/11/08 18:56:40;;;;;;;9.90;2.28;;;22.90;55.70;;;;;;5063275;28;20601;-73
2022/11/08 18:59:14;;;;;;;4.97;1.27;;;22.90;56.20;;;;;;5063252;28;20065;-70
2022/11/08 19:01:46;;;;;;;6.25;1.80;;;22.90;56.60;;;;;;5067924;28;20029;-74
2022/11/08 19:04:13;;;;;;;5.03;1.38;;;22.90;56.30;;;;;;5066892;28;20033;-75
2022/11/08 19:06:40;;;;;;;3.60;1.23;;;22.90;56.10;;;;;;5066525;28;20098;-74
2022/11/08 19:09:07;;;;;;;4.60;1.00;;;22.80;55.90;;;;;;5062112;28;20029;-74
2022/11/08 19:11:33;;;;;;;2.53;1.10;;;22.80;56.40;;;;;;5064532;28;20035;-74
2022/11/08 19:14:01;;;;;;;4.47;1.25;;;22.80;55.80;;;;;;5066928;28;20181;-72
2022/11/08 19:16:27;;;;;;;3.60;1.38;;;22.80;55.80;;;;;;5067721;28;20025;-73
2022/11/08 19:18:54;;;;;;;4.50;1.15;;;22.80;55.80;;;;;;5068889;28;20025;-73
2022/11/08 19:21:23;;;;;;;3.13;0.90;;;22.70;55.70;;;;;;5065552;28;20025;-71
2022/11/08 19:23:50;;;;;;;5.78;1.70;;;22.80;55.80;;;;;;5066355;28;20032;-73
2022/11/08 19:26:23;;;;;;;3.50;1.10;;;22.70;55.80;;;;;;5063380;28;20025;-73
2022/11/08 19:28:50;;;;;;;2.25;0.82;;;22.70;55.80;;;;;;5070004;28;20031;-75
2022/11/08 19:31:19;;;;;;;2.85;0.98;;;22.70;55.80;;;;;;5068637;28;20024;-74
2022/11/08 19:34:25;;;;;;;5.68;1.70;;;22.60;55.90;;;;;;5064222;28;20024;-76
2022/11/08 19:37:31;;;;;;;5.50;1.13;;;22.60;55.90;;;;;;5066328;28;20659;-70
2022/11/08 19:40:37;;;;;;;2.25;0.70;;;22.60;56.00;;;;;;5065239;28;20017;-70
2022/11/08 19:43:43;;;;;;;2.55;1.10;;;22.60;56.10;;;;;;5065460;28;20013;-72
2022/11/08 19:46:53;;;;;;;5.03;0.70;;;22.60;56.20;;;;;;5065790;28;20464;-74
2022/11/08 19:49:59;;;;;;;4.05;1.63;;;22.50;56.20;;;;;;5064923;28;20055;-77
2022/11/08 19:52:25;;;;;;;15.70;2.63;;;22.50;56.30;;;;;;5066604;28;20036;-76
2022/11/08 19:54:52;;;;;;;18.35;11.10;;;22.50;56.50;;;;;;5067336;28;20443;-75
2022/11/08 19:57:18;;;;;;;24.58;14.80;;;22.50;57.40;;;;;;5066420;28;20024;-73
2022/11/08 19:59:45;;;;;;;14.60;10.48;;;22.50;57.60;;;;;;5066871;28;20017;-76
2022/11/08 20:02:11;;;;;;;10.30;5.50;;;22.40;57.40;;;;;;5067986;28;20053;-74
2022/11/08 20:04:38;;;;;;;14.63;4.60;;;22.40;57.20;;;;;;5062741;28;20029;-76
2022/11/08 20:07:11;;;;;;;9.27;2.97;;;22.40;58.40;;;;;;5062187;28;20499;-77
2022/11/08 20:09:38;;;;;;;24.50;4.75;;;22.40;57.90;;;;;;5065440;28;20115;-77
2022/11/08 20:12:04;;;;;;;4.30;1.10;;;22.40;57.60;;;;;;5067041;28;20016;-71
2022/11/08 20:14:31;;;;;;;8.90;1.55;;;22.30;57.40;;;;;;5063851;28;20056;-76
2022/11/08 20:16:58;;;;;;;8.85;2.10;;;22.30;57.40;;;;;;5065753;28;20020;-75
2022/11/08 20:19:24;;;;;;;5.30;1.20;;;22.30;57.90;;;;;;5067527;28;20040;-73
2022/11/08 20:21:55;;;;;;;4.75;1.17;;;22.30;58.10;;;;;;5066907;28;20066;-75
2022/11/08 20:24:21;;;;;;;6.97;1.67;;;22.30;58.20;;;;;;5066680;28;20123;-75
2022/11/08 20:26:48;;;;;;;5.28;0.93;;;22.30;58.10;;;;;;5066069;28;20024;-74
2022/11/08 20:29:15;;;;;;;4.18;1.73;;;22.30;57.90;;;;;;5066140;28;20102;-75
2022/11/08 20:31:42;;;;;;;3.47;1.00;;;22.30;57.60;;;;;;5063826;28;20013;-77
2022/11/08 20:34:10;;;;;;;4.25;1.35;;;22.30;57.50;;;;;;5065934;28;20040;-76
2022/11/08 20:36:37;;;;;;;3.72;0.90;;;22.30;57.30;;;;;;5062396;28;20177;-75
2022/11/08 20:39:05;;;;;;;4.65;0.80;;;22.30;57.30;;;;;;5066924;28;20032;-75
2022/11/08 20:41:33;;;;;;;3.55;1.27;;;22.30;57.20;;;;;;5065848;28;20024;-76
2022/11/08 20:44:00;;;;;;;2.95;1.67;;;22.20;57.20;;;;;;5060049;28;20029;-77
2022/11/08 20:46:26;;;;;;;8.13;2.15;;;22.20;57.20;;;;;;5068008;28;20112;-75
2022/11/08 20:48:54;;;;;;;6.50;2.70;;;22.20;57.30;;;;;;5066670;28;20479;-74
2022/11/08 20:51:21;;;;;;;2.03;1.52;;;22.20;57.60;;;;;;5069850;28;20118;-73
2022/11/08 20:53:48;;;;;;;2.78;0.80;;;22.20;58.00;;;;;;5069172;28;20066;-72
2022/11/08 20:56:20;;;;;;;2.75;1.10;;;22.20;58.20;;;;;;5068112;28;20091;-73
2022/11/08 20:58:48;;;;;;;2.58;0.80;;;22.20;58.40;;;;;;5070433;28;21001;-75
2022/11/08 21:01:21;;;;;;;1.65;0.75;;;22.20;58.50;;;;;;5068889;28;20081;-74
2022/11/08 21:03:48;;;;;;;2.80;1.10;;;22.20;58.80;;;;;;5065776;28;20078;-74
2022/11/08 21:06:18;;;;;;;3.72;1.73;;;22.10;58.90;;;;;;5070919;28;20195;-75
2022/11/08 21:08:45;;;;;;;1.23;0.45;;;22.10;59.60;;;;;;5069509;28;20077;-75
2022/11/08 21:11:12;;;;;;;3.75;1.20;;;22.10;59.10;;;;;;5074429;28;20543;-74
2022/11/08 21:13:41;;;;;;;4.50;0.85;;;22.10;59.10;;;;;;5066321;28;20042;-74
2022/11/08 21:16:10;;;;;;;4.53;1.50;;;22.10;59.20;;;;;;5069809;28;20480;-75
2022/11/08 21:18:38;;;;;;;1.20;0.90;;;22.10;59.20;;;;;;5069500;28;20154;-75
2022/11/08 21:21:10;;;;;;;2.03;0.85;;;22.10;59.20;;;;;;5072100;28;20074;-75
2022/11/08 21:23:38;;;;;;;6.40;1.40;;;22.10;59.30;;;;;;5068866;28;20129;-75
2022/11/08 21:26:07;;;;;;;1.90;0.98;;;22.10;59.50;;;;;;5063509;28;20118;-75